Time;durP1;ratioP1;P1;durP2;ratioP2;P2;SDS_P1;SDS_P2;PMS_P1;PMS_P2;Temp;Humidity;BMP_temperature;BMP_pressure;BME280_temperature;BME280_humidity;BME280_pressure;Samples;Min_cycle;Max_cycle;Signal;HPM_P1;HPM_P2
2022/10/29 00:00:39;;;;;;;5.75;5.28;;;9.60;99.90;;;;;;4121297;28;20053;-82
2022/10/29 00:02:59;;;;;;;6.47;6.10;;;9.50;99.90;;;;;;4128693;28;20042;-82
2022/10/29 00:05:19;;;;;;;6.70;6.40;;;9.40;99.90;;;;;;4125020;28;20281;-82
2022/10/29 00:07:39;;;;;;;5.65;5.45;;;9.40;99.90;;;;;;4131926;28;20364;-82
2022/10/29 00:09:59;;;;;;;5.72;5.40;;;9.30;99.90;;;;;;4129067;28;20237;-82
2022/10/29 00:12:19;;;;;;;5.63;5.18;;;9.30;99.90;;;;;;4131598;28;20049;-82
2022/10/29 00:14:39;;;;;;;6.38;5.82;;;9.20;99.90;;;;;;4115777;28;20369;-82
2022/10/29 00:16:59;;;;;;;6.45;5.80;;;9.30;99.90;;;;;;4120512;28;20066;-82
2022/10/29 00:19:19;;;;;;;4.65;3.95;;;9.40;99.90;;;;;;4133019;28;20400;-82
2022/10/29 00:21:39;;;;;;;5.68;5.15;;;9.50;99.90;;;;;;4131561;28;20138;-82
2022/10/29 00:23:59;;;;;;;4.53;4.38;;;9.50;99.90;;;;;;4134979;28;20069;-82
2022/10/29 00:26:21;;;;;;;4.88;4.57;;;9.60;99.90;;;;;;4128536;28;20046;-83
2022/10/29 00:28:41;;;;;;;7.72;5.05;;;9.70;99.90;;;;;;4118268;28;20121;-83
2022/10/29 00:31:06;;;;;;;4.85;4.65;;;9.60;99.90;;;;;;4133095;28;20114;-83
2022/10/29 00:33:26;;;;;;;5.05;4.57;;;9.40;99.90;;;;;;4112783;28;20043;-83
2022/10/29 00:35:55;;;;;;;5.10;4.72;;;9.40;99.90;;;;;;4132480;28;20083;-83
2022/10/29 00:38:15;;;;;;;5.65;5.35;;;9.60;99.90;;;;;;4132545;28;20042;-83
2022/10/29 00:40:38;;;;;;;3.95;3.60;;;9.60;99.90;;;;;;4113359;28;20050;-83
2022/10/29 00:43:15;;;;;;;4.13;4.03;;;9.70;99.90;;;;;;4130922;28;20045;-82
2022/10/29 00:45:35;;;;;;;5.78;4.60;;;9.70;99.90;;;;;;4132220;28;20050;-82
2022/10/29 00:47:54;;;;;;;8.88;5.65;;;9.70;99.90;;;;;;4123829;28;20046;-82
2022/10/29 00:50:15;;;;;;;6.10;5.70;;;9.70;99.90;;;;;;4129189;28;20045;-82
2022/10/29 00:52:40;;;;;;;6.55;6.10;;;9.80;99.90;;;;;;4131959;28;20106;-82
2022/10/29 00:55:04;;;;;;;4.75;4.65;;;9.70;99.90;;;;;;4133231;28;20045;-82
2022/10/29 00:57:34;;;;;;;5.28;4.88;;;9.50;99.90;;;;;;4120971;28;20042;-82
2022/10/29 00:59:55;;;;;;;5.47;5.28;;;9.40;99.90;;;;;;4132930;28;20077;-82
2022/10/29 01:02:15;;;;;;;8.63;5.28;;;9.30;99.90;;;;;;4128488;28;20417;-82
2022/10/29 01:04:37;;;;;;;5.75;5.22;;;9.20;99.90;;;;;;4117343;28;20250;-82
2022/10/29 01:06:57;;;;;;;5.40;5.20;;;9.20;99.90;;;;;;4130200;28;20086;-82
2022/10/29 01:09:17;;;;;;;5.22;4.82;;;9.10;99.90;;;;;;4116734;28;20077;-83
2022/10/29 01:11:43;;;;;;;5.78;5.30;;;9.00;99.90;;;;;;4137764;28;20089;-82
2022/10/29 01:14:12;;;;;;;5.65;5.18;;;8.90;99.90;;;;;;4128371;28;20053;-82
2022/10/29 01:16:44;;;;;;;5.30;4.88;;;8.80;99.90;;;;;;4134080;28;20066;-82
2022/10/29 01:19:11;;;;;;;5.80;5.60;;;8.80;99.90;;;;;;4131985;28;20110;-82
2022/10/29 01:21:52;;;;;;;5.07;4.88;;;8.90;99.90;;;;;;4128690;28;20041;-82
2022/10/29 01:24:36;;;;;;;5.50;5.18;;;9.00;99.90;;;;;;4117238;28;20046;-82
2022/10/29 01:27:34;;;;;;;4.47;3.67;;;9.00;99.90;;;;;;4111780;28;20069;-82
2022/10/29 01:30:00;;;;;;;4.28;4.18;;;9.00;99.90;;;;;;4131753;28;20069;-82
2022/10/29 01:33:01;;;;;;;4.95;4.32;;;9.20;99.90;;;;;;4110580;28;20043;-82
2022/10/29 01:35:50;;;;;;;5.03;4.20;;;9.10;99.90;;;;;;4051269;29;20101;-82
2022/10/29 01:38:33;;;;;;;4.13;3.85;;;8.90;99.90;;;;;;4055464;29;20290;-82
2022/10/29 01:41:13;;;;;;;3.67;3.47;;;8.80;99.90;;;;;;4063585;29;20044;-82
2022/10/29 01:43:39;;;;;;;4.72;4.47;;;8.90;99.90;;;;;;4062324;29;20292;-82
2022/10/29 01:46:16;;;;;;;5.10;4.70;;;9.00;99.90;;;;;;4058663;29;20130;-82
2022/10/29 01:48:42;;;;;;;5.30;4.80;;;9.10;99.90;;;;;;4067232;29;20093;-82
2022/10/29 01:51:07;;;;;;;4.93;4.10;;;9.10;99.90;;;;;;4050303;29;20130;-83
2022/10/29 01:53:28;;;;;;;5.20;5.00;;;9.00;99.90;;;;;;4051290;29;20109;-83
2022/10/29 01:55:47;;;;;;;3.75;3.47;;;8.90;99.90;;;;;;4051810;29;20048;-82
2022/10/29 01:58:08;;;;;;;4.18;3.85;;;8.80;99.90;;;;;;4053345;29;20052;-82
2022/10/29 02:00:39;;;;;;;5.78;5.32;;;8.80;99.90;;;;;;4064711;29;20144;-82
2022/10/29 02:03:21;;;;;;;4.80;4.68;;;8.80;99.90;;;;;;4052733;29;20464;-82
2022/10/29 02:06:04;;;;;;;4.13;3.92;;;8.70;99.90;;;;;;4081241;28;20074;-82
2022/10/29 02:08:42;;;;;;;5.88;4.47;;;8.60;99.90;;;;;;4115640;28;20107;-82
2022/10/29 02:11:24;;;;;;;5.30;5.00;;;8.50;99.90;;;;;;4135694;28;20041;-82
2022/10/29 02:14:07;;;;;;;4.85;4.50;;;8.50;99.90;;;;;;4125875;28;20283;-82
2022/10/29 02:16:28;;;;;;;5.50;5.13;;;8.50;99.90;;;;;;4116693;28;20377;-82
2022/10/29 02:18:48;;;;;;;4.18;3.83;;;8.60;99.90;;;;;;4113503;28;20058;-83
2022/10/29 02:21:08;;;;;;;5.93;5.43;;;8.50;99.90;;;;;;4126025;28;20049;-83
2022/10/29 02:23:27;;;;;;;5.47;5.18;;;8.50;99.90;;;;;;4130333;28;20323;-83
2022/10/29 02:25:47;;;;;;;5.05;4.65;;;8.40;99.90;;;;;;4114784;28;20097;-82
2022/10/29 02:28:08;;;;;;;4.82;4.72;;;8.20;99.90;;;;;;4130619;28;20058;-82
2022/10/29 02:30:28;;;;;;;3.85;3.72;;;8.10;99.90;;;;;;4125511;28;20331;-82
2022/10/29 02:32:48;;;;;;;5.13;4.97;;;8.10;99.90;;;;;;4131251;28;20046;-82
2022/10/29 02:35:08;;;;;;;5.68;4.80;;;8.00;99.90;;;;;;4137268;28;20125;-82
2022/10/29 02:37:28;;;;;;;5.55;5.25;;;8.00;99.90;;;;;;4113532;28;20050;-82
2022/10/29 02:39:47;;;;;;;5.47;5.10;;;8.00;99.90;;;;;;4132270;28;20093;-82
2022/10/29 02:42:07;;;;;;;6.25;5.00;;;8.10;99.90;;;;;;4132791;28;20053;-82
2022/10/29 02:44:27;;;;;;;5.97;5.78;;;8.30;99.90;;;;;;4119071;28;20289;-82
2022/10/29 02:46:48;;;;;;;10.73;5.25;;;8.30;99.90;;;;;;4117368;28;20085;-82
2022/10/29 02:49:07;;;;;;;4.30;4.00;;;8.20;99.90;;;;;;4127350;28;20081;-82
2022/10/29 02:51:27;;;;;;;5.60;5.25;;;8.10;99.90;;;;;;4125685;28;20269;-82
2022/10/29 02:53:46;;;;;;;4.78;4.10;;;8.10;99.90;;;;;;4113567;28;20050;-82
2022/10/29 02:56:07;;;;;;;4.43;4.22;;;7.90;99.90;;;;;;4129265;28;20153;-82
2022/10/29 02:58:26;;;;;;;5.10;4.65;;;8.00;99.90;;;;;;4133984;28;20054;-82
2022/10/29 03:00:49;;;;;;;5.28;4.50;;;8.10;99.90;;;;;;4126641;28;20357;-82
2022/10/29 03:03:09;;;;;;;5.10;4.90;;;8.30;99.90;;;;;;4132845;28;20063;-82
2022/10/29 03:05:28;;;;;;;6.00;5.70;;;8.30;99.90;;;;;;4132803;28;20049;-82
2022/10/29 03:07:48;;;;;;;4.82;4.72;;;8.20;99.90;;;;;;4127649;28;20042;-82
2022/10/29 03:10:08;;;;;;;4.72;4.40;;;8.20;99.90;;;;;;4132093;28;20053;-82
2022/10/29 03:12:29;;;;;;;4.40;4.05;;;8.20;99.90;;;;;;4114270;28;20090;-82
2022/10/29 03:14:49;;;;;;;5.90;5.40;;;8.10;99.90;;;;;;4114050;28;20106;-82
2022/10/29 03:17:09;;;;;;;3.83;3.67;;;8.10;99.90;;;;;;4118248;28;20042;-82
2022/10/29 03:19:29;;;;;;;5.28;5.03;;;8.10;99.90;;;;;;4131845;28;20076;-82
2022/10/29 03:21:48;;;;;;;4.43;4.13;;;8.00;99.90;;;;;;4113626;28;20102;-82
2022/10/29 03:24:08;;;;;;;5.07;4.72;;;8.00;99.90;;;;;;4128766;28;20242;-82
2022/10/29 03:26:28;;;;;;;4.55;4.35;;;7.80;99.90;;;;;;4120485;28;20090;-82
2022/10/29 03:28:48;;;;;;;11.40;5.30;;;7.70;99.90;;;;;;4124946;28;20046;-82
2022/10/29 03:31:08;;;;;;;5.20;4.90;;;7.70;99.90;;;;;;4134220;28;20173;-82
2022/10/29 03:33:27;;;;;;;5.00;4.78;;;7.70;99.90;;;;;;4120609;28;20050;-82
2022/10/29 03:35:47;;;;;;;4.13;3.92;;;7.80;99.90;;;;;;4131575;28;20229;-82
2022/10/29 03:38:07;;;;;;;4.50;4.28;;;7.90;99.90;;;;;;4129847;28;20110;-82
2022/10/29 03:40:27;;;;;;;5.68;5.28;;;7.90;99.90;;;;;;4111991;28;20066;-82
2022/10/29 03:42:46;;;;;;;4.72;4.53;;;7.90;99.90;;;;;;4114587;28;20046;-82
2022/10/29 03:45:07;;;;;;;4.63;4.32;;;7.90;99.90;;;;;;4131277;28;20294;-82
2022/10/29 03:47:28;;;;;;;6.40;5.82;;;8.00;99.90;;;;;;4131467;28;20053;-82
2022/10/29 03:49:48;;;;;;;4.72;4.32;;;7.90;99.90;;;;;;4118955;28;20131;-82
2022/10/29 03:52:08;;;;;;;5.32;5.18;;;7.80;99.90;;;;;;4113261;28;20066;-82
2022/10/29 03:54:27;;;;;;;4.50;4.28;;;7.70;99.90;;;;;;4130259;28;20050;-82
2022/10/29 03:56:47;;;;;;;4.97;4.88;;;7.60;99.90;;;;;;4120745;28;20123;-82
2022/10/29 03:59:07;;;;;;;4.88;4.53;;;7.60;99.90;;;;;;4121238;28;20063;-82
2022/10/29 04:01:27;;;;;;;4.78;4.47;;;7.50;99.90;;;;;;4115622;28;20081;-82
2022/10/29 04:03:47;;;;;;;7.13;6.68;;;7.40;99.90;;;;;;4135096;28;20085;-82
2022/10/29 04:06:12;;;;;;;5.05;4.57;;;7.40;99.90;;;;;;4127687;28;20074;-83
2022/10/29 04:08:32;;;;;;;4.97;4.72;;;7.30;99.90;;;;;;4126194;28;20380;-82
2022/10/29 04:10:52;;;;;;;6.60;6.10;;;7.30;99.90;;;;;;4131945;28;20407;-82
2022/10/29 04:13:13;;;;;;;4.85;4.68;;;7.30;99.90;;;;;;4115416;28;20791;-82
2022/10/29 04:15:33;;;;;;;5.75;5.60;;;7.40;99.90;;;;;;4127971;28;20061;-82
2022/10/29 04:17:52;;;;;;;5.50;5.10;;;7.40;99.90;;;;;;4128401;28;20250;-82
2022/10/29 04:20:12;;;;;;;6.03;5.82;;;7.50;99.90;;;;;;4134001;28;20065;-82
2022/10/29 04:22:52;;;;;;;5.47;5.13;;;7.50;99.90;;;;;;4130532;28;20400;-82
2022/10/29 04:25:32;;;;;;;5.15;4.95;;;7.50;99.90;;;;;;4119716;28;20061;-82
2022/10/29 04:28:11;;;;;;;4.32;4.15;;;7.60;99.90;;;;;;4135538;28;20103;-82
2022/10/29 04:30:52;;;;;;;7.05;4.03;;;7.60;99.90;;;;;;4127729;28;20245;-82
2022/10/29 04:33:12;;;;;;;4.20;3.90;;;7.60;99.90;;;;;;4133712;28;20076;-82
2022/10/29 04:35:31;;;;;;;4.90;4.63;;;7.60;99.90;;;;;;4127687;28;20094;-82
2022/10/29 04:37:54;;;;;;;8.48;6.43;;;7.50;99.90;;;;;;4129334;28;20045;-82
2022/10/29 04:40:14;;;;;;;4.13;3.83;;;7.60;99.90;;;;;;4130771;28;20246;-82
2022/10/29 04:42:38;;;;;;;4.00;3.70;;;7.60;99.90;;;;;;4130761;28;20291;-82
2022/10/29 04:44:58;;;;;;;4.32;4.03;;;7.60;99.90;;;;;;4133737;28;20142;-82
2022/10/29 04:47:17;;;;;;;4.85;4.50;;;7.60;99.90;;;;;;4136097;28;20102;-82
2022/10/29 04:49:37;;;;;;;6.15;4.80;;;7.60;99.90;;;;;;4133759;28;20049;-82
2022/10/29 04:51:57;;;;;;;5.32;4.30;;;7.60;99.90;;;;;;4126378;28;20037;-82
2022/10/29 04:54:17;;;;;;;5.05;4.82;;;7.60;99.90;;;;;;4129028;28;20062;-82
2022/10/29 04:56:36;;;;;;;5.38;5.05;;;7.50;99.90;;;;;;4133620;28;20054;-82
2022/10/29 04:58:56;;;;;;;8.07;5.03;;;7.40;99.90;;;;;;4116085;28;20062;-82
2022/10/29 05:01:16;;;;;;;5.03;4.78;;;7.30;99.90;;;;;;4112335;28;20081;-82
2022/10/29 05:03:36;;;;;;;8.07;5.45;;;7.30;99.90;;;;;;4118576;28;20090;-82
2022/10/29 05:05:56;;;;;;;4.35;4.13;;;7.20;99.90;;;;;;4116296;28;20091;-82
2022/10/29 05:08:16;;;;;;;4.18;4.00;;;7.20;99.90;;;;;;4126794;28;20150;-82
2022/10/29 05:10:39;;;;;;;5.85;4.05;;;7.30;99.90;;;;;;4117971;28;20106;-82
2022/10/29 05:13:08;;;;;;;4.27;3.97;;;7.30;99.90;;;;;;4130656;28;20045;-82
2022/10/29 05:15:29;;;;;;;4.38;4.15;;;7.50;99.90;;;;;;4126334;28;20337;-82
2022/10/29 05:17:50;;;;;;;6.05;5.53;;;7.50;99.90;;;;;;4130139;28;20065;-82
2022/10/29 05:20:10;;;;;;;5.15;4.95;;;7.50;99.90;;;;;;4134088;28;20045;-82
2022/10/29 05:22:30;;;;;;;4.47;4.38;;;7.40;99.90;;;;;;4116893;28;20099;-82
2022/10/29 05:24:50;;;;;;;4.53;4.32;;;7.40;99.90;;;;;;4113904;28;20085;-82
2022/10/29 05:27:09;;;;;;;5.00;4.80;;;7.20;99.90;;;;;;4133719;28;20046;-82
2022/10/29 05:29:29;;;;;;;3.92;3.67;;;7.10;99.90;;;;;;4128889;28;20049;-82
2022/10/29 05:31:52;;;;;;;4.70;4.30;;;7.00;99.90;;;;;;4127544;28;20050;-82
2022/10/29 05:34:11;;;;;;;4.85;4.65;;;7.00;99.90;;;;;;4132383;28;20056;-82
2022/10/29 05:36:31;;;;;;;4.65;4.45;;;6.90;99.90;;;;;;4127420;28;20049;-82
2022/10/29 05:38:52;;;;;;;4.75;4.32;;;6.90;99.90;;;;;;4115298;28;20050;-82
2022/10/29 05:41:11;;;;;;;5.57;5.38;;;6.90;99.90;;;;;;4113288;28;20042;-82
2022/10/29 05:43:31;;;;;;;5.38;5.18;;;6.90;99.90;;;;;;4133739;28;20080;-82
2022/10/29 05:45:51;;;;;;;4.80;3.33;;;7.00;99.90;;;;;;4138705;28;20048;-82
2022/10/29 05:48:11;;;;;;;4.93;4.60;;;7.00;99.90;;;;;;4128466;28;20233;-82
2022/10/29 05:50:36;;;;;;;6.18;3.90;;;7.00;99.90;;;;;;4134904;28;20049;-86
2022/10/29 05:52:58;;;;;;;4.40;4.10;;;7.10;99.90;;;;;;4113106;28;20089;-86
2022/10/29 05:55:18;;;;;;;3.95;3.65;;;7.20;99.90;;;;;;4127928;28;20053;-85
2022/10/29 05:57:38;;;;;;;2.72;2.63;;;7.30;99.90;;;;;;4130943;28;20412;-85
2022/10/29 05:59:57;;;;;;;2.85;2.65;;;7.40;99.90;;;;;;4116699;28;20050;-85
2022/10/29 06:02:18;;;;;;;3.17;3.03;;;7.20;99.90;;;;;;4130488;28;20046;-85
2022/10/29 06:04:38;;;;;;;3.60;3.50;;;7.20;99.90;;;;;;4112624;28;20073;-85
2022/10/29 06:06:59;;;;;;;4.05;3.80;;;7.40;99.90;;;;;;4114071;28;20043;-85
2022/10/29 06:09:19;;;;;;;2.97;2.75;;;7.40;99.90;;;;;;4128252;28;20045;-85
2022/10/29 06:11:39;;;;;;;4.40;4.30;;;7.40;99.90;;;;;;4130221;28;20052;-85
2022/10/29 06:13:59;;;;;;;3.60;3.30;;;7.30;99.90;;;;;;4135703;28;20053;-85
2022/10/29 06:16:19;;;;;;;4.63;4.40;;;7.20;99.90;;;;;;4125529;28;20429;-85
2022/10/29 06:18:39;;;;;;;6.22;6.00;;;7.10;99.90;;;;;;4116853;28;20074;-85
2022/10/29 06:20:59;;;;;;;7.07;6.53;;;7.00;99.90;;;;;;4132216;28;20123;-84
2022/10/29 06:23:19;;;;;;;6.05;5.70;;;6.80;99.90;;;;;;4129157;28;20053;-85
2022/10/29 06:25:39;;;;;;;7.78;7.13;;;6.80;99.90;;;;;;4113248;28;20050;-85
2022/10/29 06:28:04;;;;;;;6.63;6.22;;;6.70;99.90;;;;;;4131684;28;20295;-84
2022/10/29 06:30:24;;;;;;;5.80;5.60;;;6.70;99.90;;;;;;4114328;28;20054;-85
2022/10/29 06:32:46;;;;;;;4.72;4.57;;;6.70;99.90;;;;;;4112627;28;20083;-85
2022/10/29 06:35:06;;;;;;;4.93;4.82;;;6.70;99.90;;;;;;4128770;28;20050;-85
2022/10/29 06:37:26;;;;;;;5.63;5.47;;;6.80;99.90;;;;;;4120636;28;20038;-85
2022/10/29 06:39:45;;;;;;;5.30;5.20;;;6.80;99.90;;;;;;4129021;28;20074;-85
2022/10/29 06:42:05;;;;;;;5.18;4.93;;;6.90;99.90;;;;;;4130308;28;20413;-84
2022/10/29 06:44:25;;;;;;;7.55;5.32;;;6.90;99.90;;;;;;4125775;28;20045;-84
2022/10/29 06:46:45;;;;;;;4.45;4.15;;;7.00;99.90;;;;;;4110119;28;20456;-85
2022/10/29 06:49:05;;;;;;;3.78;3.55;;;7.10;99.90;;;;;;4116368;28;20094;-85
2022/10/29 06:51:25;;;;;;;4.35;4.25;;;7.20;99.90;;;;;;4129295;28;20073;-85
2022/10/29 06:53:46;;;;;;;6.63;3.38;;;7.40;99.90;;;;;;4124619;28;20126;-85
2022/10/29 06:56:05;;;;;;;4.03;3.08;;;7.50;99.90;;;;;;4127197;28;20380;-85
2022/10/29 06:58:26;;;;;;;5.22;3.90;;;7.70;99.90;;;;;;4130167;28;20253;-85
2022/10/29 07:00:47;;;;;;;7.20;4.00;;;8.00;99.90;;;;;;4134310;28;20079;-85
2022/10/29 07:03:16;;;;;;;3.35;3.17;;;8.20;99.90;;;;;;4112302;28;20054;-85
2022/10/29 07:05:36;;;;;;;5.13;4.40;;;8.40;99.90;;;;;;4131239;28;20373;-85
2022/10/29 07:07:57;;;;;;;4.78;4.60;;;8.50;99.90;;;;;;4122161;28;20089;-84
2022/10/29 07:10:17;;;;;;;4.10;3.90;;;8.70;99.90;;;;;;4121098;28;20049;-85
2022/10/29 07:12:43;;;;;;;3.90;3.80;;;8.90;99.90;;;;;;4131600;28;20236;-85
2022/10/29 07:15:04;;;;;;;2.70;2.60;;;9.00;99.90;;;;;;4129435;28;20139;-85
2022/10/29 07:17:23;;;;;;;3.95;1.90;;;9.20;99.90;;;;;;4126118;28;20058;-84
2022/10/29 07:19:43;;;;;;;3.90;3.42;;;9.40;99.90;;;;;;4131184;28;20280;-85
2022/10/29 07:22:02;;;;;;;2.97;2.88;;;9.40;99.90;;;;;;4123170;28;20096;-85
2022/10/29 07:24:23;;;;;;;4.88;4.45;;;9.30;99.90;;;;;;4132031;28;20257;-85
2022/10/29 07:26:43;;;;;;;5.68;5.38;;;9.10;99.90;;;;;;4128417;28;20069;-85
2022/10/29 07:29:03;;;;;;;4.65;4.45;;;9.00;99.90;;;;;;4115409;28;20380;-85
2022/10/29 07:31:23;;;;;;;4.30;4.10;;;9.10;99.90;;;;;;4135457;28;20037;-85
2022/10/29 07:33:43;;;;;;;4.30;4.20;;;9.20;99.90;;;;;;4112073;28;20095;-84
2022/10/29 07:36:03;;;;;;;2.65;2.45;;;9.40;99.90;;;;;;4131302;28;20078;-85
2022/10/29 07:38:24;;;;;;;2.35;2.25;;;9.50;99.90;;;;;;4130119;28;20054;-84
2022/10/29 07:40:48;;;;;;;3.50;3.38;;;9.60;99.90;;;;;;4124997;28;20073;-85
2022/10/29 07:43:08;;;;;;;6.05;5.53;;;9.60;99.90;;;;;;4115655;28;20148;-85
2022/10/29 07:45:29;;;;;;;8.27;7.78;;;9.60;99.90;;;;;;4127733;28;20093;-84
2022/10/29 07:47:56;;;;;;;25.80;21.65;;;9.80;99.90;;;;;;4130086;28;20042;-84
2022/10/29 07:50:22;;;;;;;8.85;8.23;;;9.80;99.90;;;;;;4129895;28;20089;-84
2022/10/29 07:52:42;;;;;;;9.13;8.57;;;9.90;99.90;;;;;;4115269;28;20074;-85
2022/10/29 07:55:02;;;;;;;6.63;6.40;;;10.00;99.90;;;;;;4124508;28;20086;-84
2022/10/29 07:57:22;;;;;;;5.65;5.35;;;10.10;99.90;;;;;;4111716;28;20087;-84
2022/10/29 07:59:42;;;;;;;3.58;3.47;;;10.10;99.90;;;;;;4134771;28;20104;-86
2022/10/29 08:02:02;;;;;;;3.35;3.05;;;10.30;99.90;;;;;;4121767;28;20119;-86
2022/10/29 08:04:22;;;;;;;3.60;3.15;;;10.40;99.90;;;;;;4122758;28;20320;-86
2022/10/29 08:06:42;;;;;;;3.65;3.55;;;10.50;99.90;;;;;;4134181;28;20085;-86
2022/10/29 08:09:02;;;;;;;4.07;3.80;;;10.60;99.90;;;;;;4125369;28;20103;-86
2022/10/29 08:11:22;;;;;;;4.55;4.20;;;10.80;99.90;;;;;;4113582;28;20085;-86
2022/10/29 08:13:42;;;;;;;3.22;2.85;;;11.00;99.90;;;;;;4117597;28;20377;-86
2022/10/29 08:16:02;;;;;;;1.80;1.77;;;11.10;99.90;;;;;;4115811;28;20046;-86
2022/10/29 08:18:22;;;;;;;1.90;1.80;;;11.10;99.90;;;;;;4112824;28;20058;-86
2022/10/29 08:20:42;;;;;;;2.00;2.00;;;11.20;99.90;;;;;;4121271;28;20384;-87
2022/10/29 08:23:02;;;;;;;1.85;1.75;;;11.40;99.90;;;;;;4119419;28;20078;-86
2022/10/29 08:25:21;;;;;;;2.65;1.50;;;11.50;99.90;;;;;;4134347;28;20396;-86
2022/10/29 08:27:42;;;;;;;2.03;1.95;;;11.70;99.90;;;;;;4130101;28;20045;-86
2022/10/29 08:30:03;;;;;;;3.17;2.42;;;11.80;99.90;;;;;;4134910;28;20241;-86
2022/10/29 08:32:23;;;;;;;3.25;3.05;;;11.90;99.90;;;;;;4127420;28;20073;-86
2022/10/29 08:34:43;;;;;;;2.85;2.63;;;12.00;99.90;;;;;;4113993;28;20112;-86
2022/10/29 08:37:02;;;;;;;5.65;2.33;;;12.10;99.90;;;;;;4132942;28;20045;-86
2022/10/29 08:39:22;;;;;;;1.88;1.77;;;12.20;99.90;;;;;;4115502;28;20051;-86
2022/10/29 08:42:09;;;;;;;7.00;1.92;;;12.30;99.90;;;;;;4114516;28;20065;-86
2022/10/29 08:45:08;;;;;;;1.60;1.50;;;12.40;99.90;;;;;;4131383;28;20045;-86
2022/10/29 08:47:31;;;;;;;1.60;1.50;;;12.50;99.90;;;;;;4121984;28;20053;-86
2022/10/29 08:50:10;;;;;;;2.17;1.85;;;12.60;99.90;;;;;;4130722;28;20045;-86
2022/10/29 08:52:36;;;;;;;3.17;1.40;;;12.70;99.90;;;;;;4133112;28;20249;-86
2022/10/29 08:55:14;;;;;;;7.05;2.17;;;12.80;99.90;;;;;;4139249;28;20285;-87
2022/10/29 08:57:42;;;;;;;3.35;1.30;;;12.90;99.90;;;;;;4131645;28;20066;-86
2022/10/29 09:00:05;;;;;;;5.57;2.17;;;13.00;99.90;;;;;;4119298;28;20046;-86
2022/10/29 09:02:25;;;;;;;9.05;2.45;;;13.10;99.90;;;;;;4113303;28;20074;-87
2022/10/29 09:04:45;;;;;;;1.80;1.70;;;13.20;99.90;;;;;;4125189;28;20150;-86
2022/10/29 09:07:24;;;;;;;1.20;1.20;;;13.30;99.90;;;;;;4131684;28;20086;-86
2022/10/29 09:09:55;;;;;;;2.00;1.67;;;13.40;99.90;;;;;;4131274;28;20369;-86
2022/10/29 09:12:46;;;;;;;2.72;1.58;;;13.60;99.90;;;;;;4129927;28;20065;-87
2022/10/29 09:15:44;;;;;;;1.75;1.27;;;13.70;99.90;;;;;;4115184;28;20050;-87
2022/10/29 09:18:15;;;;;;;1.75;1.58;;;13.90;99.90;;;;;;4133897;28;20050;-87
2022/10/29 09:20:51;;;;;;;4.70;1.60;;;14.10;99.90;;;;;;4128690;28;20054;-86
2022/10/29 09:23:23;;;;;;;2.55;1.20;;;14.20;99.90;;;;;;4132434;28;20367;-86
2022/10/29 09:25:49;;;;;;;1.20;1.20;;;14.40;99.90;;;;;;4115364;28;20086;-86
2022/10/29 09:28:43;;;;;;;1.50;1.20;;;14.60;99.90;;;;;;4128183;28;20380;-86
2022/10/29 09:31:15;;;;;;;1.15;1.15;;;14.70;99.90;;;;;;4131589;28;20058;-87
2022/10/29 09:33:37;;;;;;;1.35;1.25;;;14.90;99.90;;;;;;4112096;28;20094;-87
2022/10/29 09:35:59;;;;;;;2.90;1.30;;;15.20;99.90;;;;;;4129166;28;20065;-90
2022/10/29 09:38:35;;;;;;;4.22;1.63;;;15.40;99.90;;;;;;4131895;28;20118;-86
2022/10/29 09:41:01;;;;;;;1.13;1.02;;;15.60;99.90;;;;;;4133226;28;20076;-86
2022/10/29 09:43:47;;;;;;;2.90;1.00;;;15.90;99.90;;;;;;4130063;28;20065;-87
2022/10/29 09:46:32;;;;;;;1.15;1.15;;;16.10;99.90;;;;;;4133081;28;20082;-86
2022/10/29 09:48:56;;;;;;;1.42;1.00;;;16.40;99.90;;;;;;4120672;28;20054;-86
2022/10/29 09:51:31;;;;;;;1.45;1.42;;;16.60;99.90;;;;;;4127788;28;20069;-87
2022/10/29 09:53:52;;;;;;;1.00;1.00;;;16.90;99.90;;;;;;4134552;28;20058;-88
2022/10/29 09:56:12;;;;;;;1.10;1.10;;;17.20;99.90;;;;;;4127612;28;20388;-88
2022/10/29 09:58:38;;;;;;;1.05;0.90;;;17.40;99.90;;;;;;4127929;28;20384;-89
2022/10/29 10:00:58;;;;;;;3.25;1.02;;;17.70;99.90;;;;;;4116410;28;20074;-88
2022/10/29 10:03:27;;;;;;;1.23;0.93;;;18.00;99.90;;;;;;4119924;28;20050;-90
2022/10/29 10:06:03;;;;;;;1.00;0.90;;;18.20;99.90;;;;;;4126246;28;20081;-88
2022/10/29 10:08:23;;;;;;;2.55;1.00;;;18.40;99.90;;;;;;4128387;28;20078;-88
2022/10/29 10:10:56;;;;;;;0.85;0.85;;;18.70;99.90;;;;;;4113808;28;20078;-88
2022/10/29 10:13:17;;;;;;;1.92;1.83;;;18.90;99.90;;;;;;4135761;28;20085;-91
2022/10/29 10:15:55;;;;;;;5.20;0.90;;;19.10;99.90;;;;;;4131970;28;20089;-91
2022/10/29 10:18:22;;;;;;;1.17;0.90;;;19.30;99.90;;;;;;4134224;28;20069;-92
2022/10/29 10:20:44;;;;;;;0.80;0.80;;;19.50;99.90;;;;;;4126252;28;20045;-92
2022/10/29 10:23:27;;;;;;;0.80;0.80;;;19.60;99.90;;;;;;4131256;28;20061;-92
2022/10/29 10:25:48;;;;;;;;;;;19.80;99.90;;;;;;4128882;28;20058;-91
2022/10/29 10:28:21;;;;;;;2.75;0.90;;;20.20;99.90;;;;;;4115994;28;19966;-92
2022/10/29 10:30:42;;;;;;;0.80;0.80;;;20.50;99.90;;;;;;4129638;28;20042;-92
2022/10/29 10:33:23;;;;;;;1.00;1.00;;;20.70;99.90;;;;;;4130204;28;20248;-91
2022/10/29 10:35:47;;;;;;;1.50;0.70;;;21.30;99.90;;;;;;4125563;28;20054;-85
2022/10/29 10:38:08;;;;;;;1.42;0.70;;;21.40;99.90;;;;;;4129365;28;20364;-85
2022/10/29 10:40:28;;;;;;;1.80;0.70;;;21.50;99.90;;;;;;4115213;28;20081;-85
2022/10/29 10:42:50;;;;;;;2.03;0.70;;;21.70;99.90;;;;;;4135159;28;20066;-84
2022/10/29 10:45:15;;;;;;;1.23;0.70;;;22.00;99.90;;;;;;4129212;28;20048;-84
2022/10/29 10:47:39;;;;;;;1.05;0.60;;;22.10;98.50;;;;;;4133568;28;20045;-83
2022/10/29 10:50:19;;;;;;;0.70;0.70;;;22.40;99.50;;;;;;4125162;28;20113;-86
2022/10/29 10:52:39;;;;;;;0.68;0.60;;;22.40;97.50;;;;;;4129697;28;20073;-84
2022/10/29 10:55:28;;;;;;;0.60;0.60;;;22.60;97.80;;;;;;4128232;28;20077;-85
2022/10/29 10:57:55;;;;;;;0.77;0.65;;;22.80;97.60;;;;;;4124138;28;20050;-85
2022/10/29 11:00:19;;;;;;;1.85;0.60;;;23.00;97.10;;;;;;4127917;28;20408;-85
2022/10/29 11:02:51;;;;;;;1.55;0.70;;;23.20;96.50;;;;;;4129739;28;20050;-84
2022/10/29 11:05:17;;;;;;;0.70;0.70;;;23.30;95.40;;;;;;4110943;28;20042;-83
2022/10/29 11:07:43;;;;;;;0.60;0.60;;;23.40;95.00;;;;;;4113040;28;20421;-83
2022/10/29 11:10:06;;;;;;;1.88;0.68;;;23.50;95.00;;;;;;4133123;28;20061;-82
2022/10/29 11:12:37;;;;;;;0.70;0.70;;;23.70;95.60;;;;;;4114397;28;20275;-83
2022/10/29 11:15:04;;;;;;;1.75;0.60;;;23.90;95.60;;;;;;4127806;28;20221;-83
2022/10/29 11:17:29;;;;;;;0.80;0.80;;;24.10;95.20;;;;;;4118490;28;20094;-83
2022/10/29 11:19:51;;;;;;;1.85;0.80;;;24.40;94.90;;;;;;4110941;28;20050;-83
2022/10/29 11:22:33;;;;;;;1.80;0.63;;;24.80;95.60;;;;;;4130152;28;20423;-82
2022/10/29 11:25:17;;;;;;;1.10;0.70;;;24.70;96.10;;;;;;4130906;28;20078;-83
2022/10/29 11:27:39;;;;;;;4.82;0.70;;;24.60;95.30;;;;;;4122307;28;20254;-83
2022/10/29 11:30:05;;;;;;;1.23;0.60;;;24.70;93.80;;;;;;4113629;28;20053;-83
2022/10/29 11:32:37;;;;;;;1.50;0.80;;;25.10;94.80;;;;;;4130862;28;20238;-83
2022/10/29 11:35:12;;;;;;;0.50;0.50;;;25.40;94.00;;;;;;4138615;28;20054;-83
2022/10/29 11:37:42;;;;;;;1.17;0.60;;;25.10;93.20;;;;;;4130060;28;20114;-83
2022/10/29 11:40:11;;;;;;;1.85;0.60;;;24.90;94.00;;;;;;4120584;28;20053;-83
2022/10/29 11:42:31;;;;;;;1.35;0.43;;;25.00;92.70;;;;;;4125633;28;20045;-83
2022/10/29 11:44:51;;;;;;;0.40;0.40;;;24.90;92.80;;;;;;4129185;28;20404;-83
2022/10/29 11:47:36;;;;;;;0.70;0.60;;;24.80;92.40;;;;;;4134760;28;20053;-83
2022/10/29 11:50:14;;;;;;;0.50;0.50;;;24.60;93.00;;;;;;4129034;28;20046;-84
2022/10/29 11:53:02;;;;;;;1.50;0.50;;;24.80;92.60;;;;;;4117964;28;20049;-84
2022/10/29 11:55:41;;;;;;;1.75;0.50;;;24.90;93.00;;;;;;4116707;28;20114;-84
2022/10/29 11:58:09;;;;;;;0.55;0.40;;;24.80;91.60;;;;;;4138398;28;20077;-84
2022/10/29 12:00:43;;;;;;;1.38;0.40;;;24.90;92.50;;;;;;4135530;28;20065;-84
2022/10/29 12:03:19;;;;;;;0.40;0.40;;;24.60;90.60;;;;;;4134811;28;20294;-83
2022/10/29 12:05:55;;;;;;;0.85;0.50;;;24.70;90.30;;;;;;4124211;28;20074;-83
2022/10/29 12:08:29;;;;;;;0.50;0.50;;;24.80;90.70;;;;;;4116505;28;20050;-84
2022/10/29 12:10:58;;;;;;;1.95;0.50;;;24.70;91.00;;;;;;4124343;28;20289;-84
2022/10/29 12:13:39;;;;;;;1.48;0.52;;;24.90;90.80;;;;;;4119929;28;20054;-84
2022/10/29 12:16:27;;;;;;;0.40;0.40;;;25.10;91.20;;;;;;4132988;28;20116;-84
2022/10/29 12:18:53;;;;;;;1.15;0.45;;;25.50;91.10;;;;;;4131604;28;20764;-84
2022/10/29 12:21:28;;;;;;;0.40;0.40;;;25.70;91.90;;;;;;4127478;28;20105;-84
2022/10/29 12:24:19;;;;;;;0.40;0.40;;;25.70;91.50;;;;;;4135408;28;20384;-84
2022/10/29 12:26:50;;;;;;;0.68;0.45;;;25.50;91.20;;;;;;4134079;28;20162;-84
2022/10/29 12:29:22;;;;;;;1.65;0.75;;;24.80;91.90;;;;;;4140787;28;20392;-84
2022/10/29 12:31:48;;;;;;;0.50;0.50;;;24.90;92.30;;;;;;4131740;28;20702;-80
2022/10/29 12:34:32;;;;;;;1.52;0.50;;;25.00;93.10;;;;;;4121522;28;20046;-83
2022/10/29 12:37:16;;;;;;;1.95;0.50;;;25.30;92.80;;;;;;4126770;28;20058;-85
2022/10/29 12:39:43;;;;;;;0.40;0.40;;;25.20;93.10;;;;;;4133445;28;20082;-85
2022/10/29 12:42:30;;;;;;;0.50;0.50;;;24.90;92.60;;;;;;4113762;28;20131;-84